Time;durP1;ratioP1;P1;durP2;ratioP2;P2;SDS_P1;SDS_P2;PMS_P1;PMS_P2;Temp;Humidity;BMP_temperature;BMP_pressure;BME280_temperature;BME280_humidity;BME280_pressure;Samples;Min_cycle;Max_cycle;Signal;HPM_P1;HPM_P2
2024/04/07 00:00:19;;;;;;;;;;;16.70;99.90;;;15.66;100.00;97342.25;5022879;28;1741;-69
2024/04/07 00:02:46;;;;;;;;;;;16.50;99.90;;;15.54;100.00;97332.59;5021646;28;1841;-69
2024/04/07 00:05:12;;;;;;;;;;;16.30;99.90;;;15.67;100.00;97342.16;5022360;28;1997;-69
2024/04/07 00:07:38;;;;;;;;;;;16.20;99.90;;;15.34;100.00;97350.44;5004442;28;1855;-68
2024/04/07 00:10:04;;;;;;;;;;;16.10;99.90;;;15.06;100.00;97349.63;5017100;28;1735;-69
2024/04/07 00:12:30;;;;;;;;;;;15.80;99.90;;;15.32;100.00;97338.41;5021747;28;1693;-69
2024/04/07 00:14:56;;;;;;;;;;;15.80;99.90;;;15.41;100.00;97333.41;5025892;28;1833;-69
2024/04/07 00:17:22;;;;;;;;;;;15.90;99.90;;;15.39;100.00;97329.22;5009331;28;1559;-69
2024/04/07 00:19:47;;;;;;;;;;;15.80;99.90;;;16.01;100.00;97299.78;5040126;28;1589;-69
2024/04/07 00:22:13;;;;;;;;;;;16.10;99.90;;;15.96;100.00;97291.41;5025288;28;1765;-68
2024/04/07 00:24:39;;;;;;;;;;;16.40;99.90;;;16.38;100.00;97274.50;5026222;28;1594;-68
2024/04/07 00:27:05;;;;;;;;;;;16.60;99.90;;;16.26;100.00;97281.44;5023687;28;2029;-69
2024/04/07 00:29:31;;;;;;;;;;;16.80;99.90;;;15.90;100.00;97300.53;5023504;28;3081;-69
2024/04/07 00:31:58;;;;;;;;;;;16.70;99.90;;;16.01;100.00;97316.34;5025052;28;1630;-69
2024/04/07 00:34:24;;;;;;;;;;;16.60;99.90;;;15.85;100.00;97340.13;5035497;28;1822;-69
2024/04/07 00:36:50;;;;;;;;;;;16.40;99.90;;;15.79;100.00;97360.63;5007652;28;2223;-70
2024/04/07 00:39:16;;;;;;;;;;;16.20;99.90;;;16.10;100.00;97341.03;5023214;28;1825;-69
2024/04/07 00:41:42;;;;;;;;;;;16.30;99.90;;;16.02;100.00;97332.88;5023297;28;1591;-69
2024/04/07 00:44:08;;;;;;;;;;;16.50;99.90;;;16.44;100.00;97315.13;5023639;28;2016;-69
2024/04/07 00:46:34;;;;;;;;;;;16.70;99.90;;;16.56;100.00;97322.13;5022213;28;1989;-69
2024/04/07 00:49:01;;;;;;;;;;;16.90;99.90;;;16.75;100.00;97313.78;5022650;28;1551;-69
2024/04/07 00:51:27;;;;;;;;;;;17.00;99.90;;;16.83;100.00;97301.00;5006900;28;1751;-69
2024/04/07 00:53:55;;;;;;;;;;;17.20;99.90;;;17.38;100.00;97292.63;5027364;28;1584;-68
2024/04/07 00:56:21;;;;;;;;;;;17.50;99.90;;;17.54;100.00;97301.06;5024498;28;1761;-69
2024/04/07 00:58:48;;;;;;;;;;;17.80;99.90;;;17.41;100.00;97295.88;5011433;28;2247;-69
2024/04/07 01:01:13;;;;;;;;;;;17.90;99.90;;;17.67;100.00;97300.94;5011940;28;1327;-69
2024/04/07 01:03:39;;;;;;;;;;;18.00;99.90;;;17.61;100.00;97291.75;5028869;28;1286;-69
2024/04/07 01:06:05;;;;;;;;;;;18.10;99.70;;;17.91;100.00;97278.09;5028221;28;2369;-69
2024/04/07 01:08:31;;;;;;;;;;;18.30;98.90;;;18.32;100.00;97260.06;5028555;28;1747;-70
2024/04/07 01:10:56;;;;;;;;;;;18.60;98.00;;;18.79;100.00;97253.66;5012313;28;1883;-69
2024/04/07 01:13:26;;;;;;;;;;;18.90;96.40;;;18.74;100.00;97247.91;5028544;28;1606;-69
2024/04/07 01:15:52;;;;;;;;;;;19.00;95.90;;;18.77;100.00;97245.06;5028745;28;1693;-70
2024/04/07 01:18:19;;;;;;;;;;;19.00;95.60;;;18.50;100.00;97242.84;5027697;28;1658;-70
2024/04/07 01:20:45;;;;;;;;;;;19.00;96.00;;;18.76;100.00;97240.72;5012561;28;3162;-68
2024/04/07 01:23:17;;;;;;;;;;;19.10;95.20;;;18.75;100.00;97243.50;5029742;28;1586;-69
2024/04/07 01:25:44;;;;;;;;;;;19.20;95.20;;;18.77;100.00;97245.06;5028919;28;1985;-69
2024/04/07 01:28:10;;;;;;;;;;;19.20;94.70;;;18.72;100.00;97249.81;5028191;28;1740;-69
2024/04/07 01:30:36;;;;;;;;;;;19.30;94.80;;;18.75;100.00;97249.59;5031555;28;1594;-69
2024/04/07 01:33:03;;;;;;;;;;;19.30;94.70;;;18.83;100.00;97243.72;5022935;28;1842;-69
2024/04/07 01:35:29;;;;;;;;;;;19.30;94.10;;;18.66;100.00;97254.75;5032068;28;2161;-70
2024/04/07 01:37:56;;;;;;;;;;;19.20;93.90;;;18.84;100.00;97241.91;5032963;28;1569;-69
2024/04/07 01:40:22;;;;;;;;;;;19.30;93.70;;;19.04;100.00;97240.28;5030903;28;1629;-70
2024/04/07 01:42:50;;;;;;;;;;;19.40;93.40;;;18.75;100.00;97243.50;5028436;28;2360;-70
2024/04/07 01:45:18;;;;;;;;;;;19.30;93.40;;;18.86;100.00;97261.91;5011109;28;1805;-69
2024/04/07 01:47:44;;;;;;;;;;;19.30;93.20;;;18.74;100.00;97273.34;5028495;28;1741;-70
2024/04/07 01:50:28;;;;;;;;;;;19.30;93.20;;;18.61;100.00;97281.41;5027644;28;1133;-70
2024/04/07 01:52:55;;;;;;;;;;;19.30;93.40;;;18.64;100.00;97282.97;5007023;28;1518;-69
2024/04/07 01:55:21;;;;;;;;;;;19.20;93.10;;;18.74;100.00;97289.97;5019804;28;2169;-70
2024/04/07 01:57:47;;;;;;;;;;;19.20;93.00;;;18.85;100.00;97299.66;5029810;28;2420;-69
2024/04/07 02:00:13;;;;;;;;;;;19.20;92.80;;;18.46;100.00;97296.59;5029789;28;1804;-69
2024/04/07 02:02:39;;;;;;;;;;;19.20;93.30;;;18.48;100.00;97291.22;5024982;28;1856;-70
2024/04/07 02:05:05;;;;;;;;;;;19.10;93.10;;;18.42;100.00;97295.16;5031247;28;1427;-69
2024/04/07 02:07:32;;;;;;;;;;;19.00;93.10;;;18.15;100.00;97303.41;5023800;28;2029;-68
2024/04/07 02:09:59;;;;;;;;;;;18.90;93.80;;;18.44;100.00;97301.13;5014337;28;3075;-69
2024/04/07 02:12:24;;;;;;;;;;;18.90;93.20;;;18.39;100.00;97311.19;5029127;28;1610;-70
2024/04/07 02:14:50;;;;;;;;;;;18.90;93.20;;;18.25;100.00;97312.25;5028130;28;1581;-69
2024/04/07 02:17:16;;;;;;;;;;;18.80;93.50;;;18.22;100.00;97325.63;5012635;28;1402;-69
2024/04/07 02:19:42;;;;;;;;;;;18.80;93.50;;;18.22;100.00;97322.16;5017425;28;1489;-69
2024/04/07 02:22:08;;;;;;;;;;;18.80;93.50;;;18.18;100.00;97335.53;5027625;28;1757;-70
2024/04/07 02:24:34;;;;;;;;;;;18.80;93.70;;;18.28;100.00;97322.53;5026180;28;2062;-69
2024/04/07 02:27:00;;;;;;;;;;;18.70;93.50;;;18.13;100.00;97344.72;5026915;28;2266;-70
2024/04/07 02:29:26;;;;;;;;;;;18.70;93.90;;;18.28;100.00;97340.91;5027121;28;1743;-69
2024/04/07 02:31:52;;;;;;;;;;;18.70;93.70;;;18.27;100.00;97356.78;5029185;28;1604;-68
2024/04/07 02:34:17;;;;;;;;;;;18.70;94.00;;;18.12;100.00;97356.19;5032007;28;1619;-69
2024/04/07 02:36:43;;;;;;;;;;;18.70;94.20;;;18.10;100.00;97382.56;5033168;28;1594;-69
2024/04/07 02:39:09;;;;;;;;;;;18.70;94.20;;;17.96;100.00;97362.59;5027333;28;2083;-69
2024/04/07 02:41:36;;;;;;;;;;;18.60;94.60;;;17.94;100.00;97367.13;5028045;28;1676;-69
2024/04/07 02:44:03;;;;;;;;;;;18.50;94.80;;;17.82;100.00;97381.19;5015383;28;1753;-70
2024/04/07 02:49:14;;;;;;;;;;;18.40;95.20;;;17.68;100.00;97392.69;5029412;28;1606;-69
2024/04/07 02:51:39;;;;;;;;;;;18.30;95.40;;;17.43;100.00;97391.06;5029035;28;1630;-68
2024/04/07 02:54:05;;;;;;;;;;;18.20;96.00;;;17.38;100.00;97397.56;5035245;28;3612;-69
2024/04/07 02:56:31;;;;;;;;;;;18.10;96.30;;;17.63;100.00;97409.72;5027185;28;1474;-70
2024/04/07 02:58:57;;;;;;;;;;;18.20;95.90;;;17.31;100.00;97405.03;5044986;28;1561;-70
2024/04/07 03:01:23;;;;;;;;;;;18.00;96.30;;;17.35;100.00;97407.34;5027578;28;1810;-70
2024/04/07 03:03:49;;;;;;;;;;;18.00;96.60;;;17.33;100.00;97422.38;5028252;28;1659;-70
2024/04/07 03:06:14;;;;;;;;;;;17.90;96.70;;;17.17;100.00;97429.66;5027654;28;1910;-69
2024/04/07 03:08:40;;;;;;;;;;;17.80;96.90;;;17.06;100.00;97416.47;5025514;28;2448;-70
2024/04/07 03:11:07;;;;;;;;;;;;;;;17.11;100.00;97423.06;5030521;28;1518;-69
2024/04/07 03:13:34;;;;;;;;;;;17.70;97.10;;;16.93;100.00;97429.63;5030477;28;1889;-69
2024/04/07 03:16:00;;;;;;;;;;;17.70;97.60;;;16.79;100.00;97435.84;5011488;28;1653;-70
2024/04/07 03:18:26;;;;;;;;;;;17.60;98.00;;;16.81;100.00;97446.22;5011463;28;1603;-69
2024/04/07 03:20:55;;;;;;;;;;;17.50;98.00;;;16.65;100.00;97451.63;5026928;28;1747;-69
2024/04/07 03:23:21;;;;;;;;;;;17.40;98.40;;;16.69;100.00;97450.50;5029178;28;2066;-68
2024/04/07 03:25:48;;;;;;;;;;;17.30;98.20;;;16.60;100.00;97454.59;5028221;28;1922;-69
2024/04/07 03:28:14;;;;;;;;;;;17.30;98.60;;;16.57;100.00;97459.22;5027787;28;1760;-70
2024/04/07 03:30:42;;;;;;;;;;;17.30;98.60;;;16.48;100.00;97456.28;5027694;28;1470;-69
2024/04/07 03:33:07;;;;;;;;;;;17.20;98.80;;;16.31;100.00;97477.56;5027912;28;1618;-69
2024/04/07 03:35:33;;;;;;;;;;;17.20;99.10;;;16.22;100.00;97480.78;5029186;28;1583;-70
2024/04/07 03:37:59;;;;;;;;;;;17.00;99.30;;;16.13;100.00;97497.13;5027621;28;3425;-70
2024/04/07 03:40:26;;;;;;;;;;;17.00;99.60;;;16.10;100.00;97500.75;5025497;28;1661;-70
2024/04/07 03:42:52;;;;;;;;;;;16.90;99.70;;;16.30;100.00;97508.13;5010660;28;2418;-70
2024/04/07 03:45:18;;;;;;;;;;;16.90;99.30;;;16.04;100.00;97516.88;5028186;28;1927;-69
2024/04/07 03:47:44;;;;;;;;;;;16.90;99.90;;;16.12;100.00;97511.97;5027425;28;1902;-70
2024/04/07 03:50:10;;;;;;;;;;;16.80;99.70;;;16.03;100.00;97504.72;5014188;28;1565;-69
2024/04/07 03:52:36;;;;;;;;;;;16.70;99.90;;;15.91;100.00;97508.97;5030339;28;1542;-70
2024/04/07 03:55:02;;;;;;;;;;;16.70;99.90;;;15.78;100.00;97514.19;5030735;28;1966;-69
2024/04/07 03:57:28;;;;;;;;;;;16.60;99.90;;;15.70;100.00;97511.19;5029632;28;1620;-69
2024/04/07 03:59:54;;;;;;;;;;;16.50;99.90;;;15.78;100.00;97531.66;5013284;28;1776;-70
2024/04/07 04:02:31;;;;;;;;;;;16.50;99.90;;;15.78;100.00;97537.75;5025055;28;1909;-70
2024/04/07 04:05:02;;;;;;;;;;;16.50;99.90;;;15.71;100.00;97541.66;5032319;28;1534;-70
2024/04/07 04:07:29;;;;;;;;;;;16.50;99.90;;;15.66;100.00;97555.00;5023979;28;1978;-70
2024/04/07 04:09:57;;;;;;;;;;;16.40;99.90;;;15.63;100.00;97551.78;5029927;28;2100;-69
2024/04/07 04:12:23;;;;;;;;;;;16.40;99.90;;;15.60;100.00;97554.56;5030935;28;1494;-69
2024/04/07 04:14:57;;;;;;;;;;;16.40;99.90;;;15.43;100.00;97553.03;5031765;28;1820;-70
2024/04/07 04:17:23;;;;;;;;;;;16.20;99.90;;;15.62;100.00;97563.16;5032502;28;1677;-69
2024/04/07 04:19:50;;;;;;;;;;;16.30;99.90;;;15.65;100.00;97566.44;5030906;28;1408;-69
2024/04/07 04:22:17;;;;;;;;;;;16.30;99.90;;;15.62;100.00;97571.88;5011856;28;1483;-70
2024/04/07 04:24:43;;;;;;;;;;;16.30;99.90;;;15.74;100.00;97572.91;5030198;28;3273;-70
2024/04/07 04:27:09;;;;;;;;;;;16.30;99.90;;;15.53;100.00;97576.81;5022450;28;1910;-69
2024/04/07 04:29:36;;;;;;;;;;;16.30;99.90;;;15.61;100.00;97575.41;5030446;28;1618;-70
2024/04/07 04:32:03;;;;;;;;;;;16.20;99.90;;;15.61;100.00;97580.63;5012115;28;1606;-70
2024/04/07 04:34:31;;;;;;;;;;;16.30;99.90;;;15.74;100.00;97575.50;5028898;28;1722;-69
2024/04/07 04:36:57;;;;;;;;;;;16.30;99.90;;;15.55;100.00;97578.41;5028941;28;1450;-69
2024/04/07 04:39:23;;;;;;;;;;;16.30;99.90;;;15.46;100.00;97584.22;5027397;28;2356;-69
2024/04/07 04:41:49;;;;;;;;;;;16.20;99.90;;;15.38;100.00;97610.00;5032200;28;1851;-69
2024/04/07 04:44:15;;;;;;;;;;;16.20;99.90;;;15.50;100.00;97613.66;5020564;28;1595;-68
2024/04/07 04:46:42;;;;;;;;;;;16.20;99.90;;;15.36;100.00;97627.56;5013787;28;1973;-70
2024/04/07 04:49:09;;;;;;;;;;;16.10;99.90;;;15.22;100.00;97638.88;5013763;28;1603;-70
2024/04/07 04:51:35;;;;;;;;;;;16.10;99.90;;;15.16;100.00;97634.00;5011152;28;1594;-69
2024/04/07 04:54:01;;;;;;;;;;;16.00;99.90;;;15.05;100.00;97639.88;5030258;28;2376;-70
2024/04/07 04:56:27;;;;;;;;;;;15.90;99.90;;;14.99;100.00;97648.09;5013695;28;1550;-69
2024/04/07 04:58:54;;;;;;;;;;;15.80;99.90;;;14.95;100.00;97641.38;5031070;28;1685;-69
2024/04/07 05:01:19;;;;;;;;;;;15.80;99.90;;;15.00;100.00;97649.75;5012106;28;1855;-69
2024/04/07 05:03:45;;;;;;;;;;;15.80;99.90;;;15.16;100.00;97639.22;5029170;28;3129;-69
2024/04/07 05:06:13;;;;;;;;;;;15.70;99.90;;;15.03;100.00;97646.97;5029347;28;2480;-69
2024/04/07 05:08:42;;;;;;;;;;;15.70;99.90;;;14.94;100.00;97653.59;5029756;28;2416;-69
2024/04/07 05:11:09;;;;;;;;;;;15.70;99.90;;;14.79;100.00;97667.56;5037744;28;1618;-69
2024/04/07 05:13:35;;;;;;;;;;;15.60;99.90;;;14.80;100.00;97672.69;5020008;28;1593;-69
2024/04/07 05:16:02;;;;;;;;;;;15.50;99.90;;;14.87;100.00;97669.72;5029760;28;1822;-69
2024/04/07 05:18:29;;;;;;;;;;;15.60;99.90;;;14.96;100.00;97683.09;5028379;28;1381;-69
2024/04/07 05:20:56;;;;;;;;;;;15.50;99.90;;;14.80;100.00;97684.91;5033392;28;2185;-70
2024/04/07 05:23:22;;;;;;;;;;;15.50;99.90;;;14.74;100.00;97687.88;5031682;28;2174;-69
2024/04/07 05:25:48;;;;;;;;;;;15.50;99.90;;;14.82;100.00;97685.66;5015062;28;1906;-69
2024/04/07 05:28:14;;;;;;;;;;;15.40;99.90;;;14.78;100.00;97689.38;5028821;28;1643;-69
2024/04/07 05:30:40;;;;;;;;;;;15.40;99.90;;;14.66;100.00;97693.53;5014331;28;1837;-70
2024/04/07 05:33:06;;;;;;;;;;;15.30;99.90;;;14.82;100.00;97710.03;5032656;28;1591;-69
2024/04/07 05:35:33;;;;;;;;;;;15.30;99.90;;;14.87;100.00;97706.28;5030320;28;2114;-69
2024/04/07 05:38:02;;;;;;;;;;;15.30;99.90;;;14.78;100.00;97712.88;5029589;28;1709;-70
2024/04/07 05:40:28;;;;;;;;;;;15.30;99.90;;;14.79;100.00;97712.81;5028009;28;3626;-70
2024/04/07 05:42:54;;;;;;;;;;;15.30;99.90;;;14.80;100.00;97721.47;5029250;28;1753;-69
2024/04/07 05:45:21;;;;;;;;;;;15.30;99.90;;;14.80;100.00;97758.06;5013009;28;2215;-70
2024/04/07 05:47:54;;;;;;;;;;;15.30;99.90;;;14.79;100.00;97757.22;5012918;28;1977;-70
2024/04/07 05:50:20;;;;;;;;;;;15.30;99.90;;;14.80;100.00;97755.44;5011157;28;1251;-69
2024/04/07 05:52:46;;;;;;;;;;;15.30;99.90;;;14.84;100.00;97743.91;5010531;28;1647;-70
2024/04/07 05:55:12;;;;;;;;;;;15.40;99.90;;;14.77;100.00;97732.97;5012438;28;2331;-69
2024/04/07 05:57:39;;;;;;;;;;;15.40;99.90;;;14.81;100.00;97738.88;5027213;28;1621;-70
2024/04/07 06:00:08;;;;;;;;;;;15.40;99.90;;;14.82;100.00;97753.59;5030393;28;1506;-70
2024/04/07 06:02:35;;;;;;;;;;;15.50;99.90;;;14.95;100.00;97767.66;5011641;28;1820;-70
2024/04/07 06:05:01;;;;;;;;;;;15.40;99.90;;;14.87;100.00;97777.72;5029210;28;1431;-70
2024/04/07 06:07:27;;;;;;;;;;;15.40;99.90;;;15.02;100.00;97761.13;5029308;28;1902;-70
2024/04/07 06:09:53;;;;;;;;;;;15.50;99.90;;;15.06;100.00;97769.66;5027097;28;2281;-70
2024/04/07 06:12:19;;;;;;;;;;;15.60;99.90;;;14.93;100.00;97776.50;5025026;28;1530;-70
2024/04/07 06:14:46;;;;;;;;;;;15.60;99.90;;;15.10;100.00;97792.09;5026370;28;1598;-70
2024/04/07 06:17:12;;;;;;;;;;;15.70;99.90;;;15.27;100.00;97791.94;5024264;28;1575;-70
2024/04/07 06:19:38;;;;;;;;;;;15.80;99.90;;;15.33;100.00;97789.91;5027639;28;1831;-70
2024/04/07 06:22:04;;;;;;;;;;;15.90;99.90;;;15.44;100.00;97785.72;5011558;28;1587;-70
2024/04/07 06:24:29;;;;;;;;;;;16.00;99.90;;;15.54;100.00;97783.41;5030311;28;3137;-70
2024/04/07 06:26:55;;;;;;;;;;;16.00;99.90;;;15.60;100.00;97785.66;5029736;28;1977;-70
2024/04/07 06:29:21;;;;;;;;;;;16.10;99.90;;;15.72;100.00;97781.50;5027003;28;1587;-70
2024/04/07 06:31:47;;;;;;;;;;;16.20;99.90;;;15.69;100.00;97782.50;5029840;28;1436;-70
2024/04/07 06:34:13;;;;;;;;;;;16.20;99.90;;;15.70;100.00;97785.94;5011348;28;1327;-70
2024/04/07 06:36:39;;;;;;;;;;;16.30;99.90;;;15.93;100.00;97799.47;5029604;28;1734;-70
2024/04/07 06:39:05;;;;;;;;;;;16.40;99.90;;;16.12;100.00;97807.03;5027328;28;2402;-70
2024/04/07 06:41:30;;;;;;;;;;;16.60;99.90;;;16.13;100.00;97812.19;5025696;28;1779;-70
2024/04/07 06:43:56;;;;;;;;;;;16.50;99.90;;;15.99;100.00;97831.34;5009786;28;1514;-70
2024/04/07 06:46:22;;;;;;;;;;;16.60;99.90;;;16.21;100.00;97828.25;5026281;28;1915;-70
2024/04/07 06:48:48;;;;;;;;;;;16.70;99.90;;;16.28;100.00;97837.44;5026093;28;1638;-70
2024/04/07 06:51:14;;;;;;;;;;;16.80;99.90;;;16.33;100.00;97838.91;5027683;28;2155;-71
2024/04/07 06:53:39;;;;;;;;;;;16.90;99.90;;;16.50;100.00;97831.69;5029263;28;1679;-71
2024/04/07 06:56:05;;;;;;;;;;;16.90;99.90;;;16.42;100.00;97831.34;5027907;28;1601;-70
2024/04/07 06:58:31;;;;;;;;;;;17.00;99.90;;;16.42;100.00;97830.47;5027161;28;1629;-70
2024/04/07 07:00:59;;;;;;;;;;;17.00;99.90;;;16.35;100.00;97819.53;5027451;28;1618;-71
2024/04/07 07:03:26;;;;;;;;;;;17.00;99.90;;;16.51;100.00;97808.94;5023747;28;3222;-69
2024/04/07 07:05:52;;;;;;;;;;;17.10;99.90;;;16.56;100.00;97799.03;5020756;28;2424;-70
2024/04/07 07:08:18;;;;;;;;;;;;;;;16.36;100.00;97802.06;5027065;28;1402;-71
2024/04/07 07:11:00;;;;;;;;;;;17.00;99.90;;;16.22;100.00;97795.91;5027447;28;1727;-70
2024/04/07 07:13:27;;;;;;;;;;;17.00;99.90;;;16.21;100.00;97801.22;5013294;28;1614;-70
2024/04/07 07:15:54;;;;;;;;;;;16.90;99.90;;;16.26;100.00;97820.09;5020974;28;1559;-70
2024/04/07 07:18:20;;;;;;;;;;;16.80;99.90;;;16.17;100.00;97823.28;5027257;28;1736;-69
2024/04/07 07:20:46;;;;;;;;;;;16.80;99.90;;;16.42;100.00;97839.19;5012722;28;1974;-70
2024/04/07 07:23:12;;;;;;;;;;;16.90;99.90;;;16.60;100.00;97845.03;5010556;28;1369;-71
2024/04/07 07:25:43;;;;;;;;;;;17.10;99.90;;;16.67;100.00;97849.00;5018860;28;1813;-70
2024/04/07 07:28:09;;;;;;;;;;;17.10;99.90;;;16.66;100.00;97847.28;5026403;28;1446;-71
2024/04/07 07:30:35;;;;;;;;;;;17.20;99.90;;;16.61;100.00;97846.75;5012301;28;1461;-70
2024/04/07 07:33:03;;;;;;;;;;;17.20;99.90;;;16.56;100.00;97856.69;5028682;28;2122;-70
2024/04/07 07:35:29;;;;;;;;;;;17.20;99.90;;;16.48;100.00;97861.53;5028555;28;2444;-70
2024/04/07 07:37:55;;;;;;;;;;;17.20;99.90;;;16.60;100.00;97870.41;5029185;28;1644;-69
2024/04/07 07:40:22;;;;;;;;;;;17.20;99.90;;;16.42;100.00;97880.25;5026244;28;3399;-70
2024/04/07 07:42:48;;;;;;;;;;;17.10;99.90;;;16.39;100.00;97880.44;5027748;28;2630;-70
2024/04/07 07:45:16;;;;;;;;;;;17.00;99.90;;;16.36;100.00;97881.47;5029369;28;1608;-71
2024/04/07 07:47:42;;;;;;;;;;;16.90;99.90;;;16.33;100.00;97892.16;5027756;28;1902;-70
2024/04/07 07:50:08;;;;;;;;;;;16.90;99.90;;;16.47;100.00;97891.31;5026686;28;1476;-71
2024/04/07 07:52:34;;;;;;;;;;;16.80;99.90;;;16.45;100.00;97893.19;5024916;28;1760;-71
2024/04/07 07:55:00;;;;;;;;;;;16.70;99.90;;;16.38;100.00;97897.13;5027813;28;1768;-70
2024/04/07 07:57:26;;;;;;;;;;;16.70;99.90;;;16.42;100.00;97883.75;5026658;28;1641;-71
2024/04/07 07:59:53;;;;;;;;;;;16.70;99.90;;;16.48;100.00;97892.97;5020392;28;2036;-70
2024/04/07 08:02:19;;;;;;;;;;;16.80;99.90;;;16.46;100.00;97913.19;5029254;28;1560;-70
2024/04/07 08:04:44;;;;;;;;;;;16.90;99.90;;;16.51;100.00;97919.84;5002885;28;1734;-71
2024/04/07 08:07:10;;;;;;;;;;;17.00;99.90;;;16.45;100.00;97916.75;5026687;28;1906;-70
2024/04/07 08:09:36;;;;;;;;;;;17.20;99.90;;;16.78;100.00;97916.44;5025978;28;1632;-70
2024/04/07 08:12:02;;;;;;;;;;;17.30;99.90;;;16.88;100.00;97914.16;5030317;28;1733;-70
2024/04/07 08:14:28;;;;;;;;;;;17.50;99.90;;;16.96;100.00;97917.09;5018040;28;2035;-71
2024/04/07 08:16:53;;;;;;;;;;;17.60;99.90;;;17.69;100.00;97908.88;5026567;28;1873;-71
2024/04/07 08:19:19;;;;;;;;;;;17.90;99.90;;;17.98;100.00;97888.59;5025506;28;1720;-70
2024/04/07 08:21:45;;;;;;;;;;;18.30;99.90;;;17.45;100.00;97895.59;5027414;28;1791;-71
2024/04/07 08:24:11;;;;;;;;;;;18.30;99.90;;;17.37;100.00;97891.78;5026645;28;1549;-70
2024/04/07 08:26:37;;;;;;;;;;;18.30;99.90;;;17.52;100.00;97903.91;5027734;28;3058;-71
2024/04/07 08:29:04;;;;;;;;;;;18.50;99.90;;;18.05;100.00;97896.06;5027184;28;1285;-71
2024/04/07 08:31:30;;;;;;;;;;;19.10;99.90;;;18.79;100.00;97878.66;5028816;28;1709;-70
2024/04/07 08:33:55;;;;;;;;;;;19.90;99.90;;;18.43;100.00;97882.06;5028353;28;1613;-70
2024/04/07 08:36:22;;;;;;;;;;;20.20;99.90;;;18.88;100.00;97877.16;5030458;28;1739;-70
2024/04/07 08:38:48;;;;;;;;;;;20.30;99.90;;;18.58;100.00;97892.34;5029321;28;1736;-70
2024/04/07 08:41:14;;;;;;;;;;;20.40;99.90;;;19.21;100.00;97887.88;5031213;28;2174;-70
2024/04/07 08:43:43;;;;;;;;;;;20.80;99.90;;;19.16;100.00;97874.22;5030344;28;1709;-69
2024/04/07 08:46:14;;;;;;;;;;;21.20;99.90;;;19.13;100.00;97861.28;5027931;28;1989;-70
2024/04/07 08:48:41;;;;;;;;;;;20.70;99.90;;;19.17;100.00;97867.16;5008026;28;1515;-69
2024/04/07 08:51:10;;;;;;;;;;;20.40;99.90;;;19.16;100.00;97868.13;5025050;28;1213;-69
2024/04/07 08:53:41;;;;;;;;;;;20.00;99.90;;;19.37;100.00;97850.75;5022777;28;1677;-70
2024/04/07 08:56:07;;;;;;;;;;;20.20;99.90;;;19.87;100.00;97847.94;5029336;28;2226;-69
2024/04/07 08:58:34;;;;;;;;;;;20.20;99.90;;;19.71;100.00;97847.44;5030197;28;1729;-70
2024/04/07 09:01:00;;;;;;;;;;;20.40;99.90;;;19.98;100.00;97834.78;5034461;28;1595;-70
2024/04/07 09:03:28;;;;;;;;;;;20.60;99.90;;;19.73;100.00;97841.09;5013312;28;2339;-70
2024/04/07 09:05:54;;;;;;;;;;;20.90;99.90;;;21.02;100.00;97831.00;5013082;28;1979;-70
2024/04/07 09:08:21;;;;;;;;;;;21.60;99.90;;;21.08;100.00;97808.56;5015868;28;1593;-70
2024/04/07 09:10:47;;;;;;;;;;;22.20;99.90;;;21.66;100.00;97802.91;5020887;28;1642;-71
2024/04/07 09:13:12;;;;;;;;;;;22.20;99.90;;;21.84;100.00;97797.88;5030957;28;1822;-70
2024/04/07 09:15:39;;;;;;;;;;;22.60;99.90;;;22.03;100.00;97773.34;5014112;28;3096;-71
2024/04/07 09:18:05;;;;;;;;;;;23.00;99.90;;;21.61;100.00;97797.19;5012461;28;1523;-71
2024/04/07 09:20:32;;;;;;;;;;;22.80;99.90;;;21.09;100.00;97795.22;5025432;28;1638;-70
2024/04/07 09:22:58;;;;;;;;;;;22.40;99.90;;;20.73;100.00;97801.69;5031063;28;1598;-71
2024/04/07 09:25:24;;;;;;;;;;;22.10;99.90;;;20.54;100.00;97788.28;5032171;28;1613;-71
2024/04/07 09:27:49;;;;;;;;;;;21.80;99.90;;;20.57;100.00;97807.38;5030626;28;1979;-70
2024/04/07 09:30:15;;;;;;;;;;;21.60;99.90;;;20.46;100.00;97800.28;4996861;28;1594;-70
2024/04/07 09:32:42;;;;;;;;;;;21.20;99.90;;;20.31;100.00;97806.75;5031147;28;2305;-71
2024/04/07 09:35:07;;;;;;;;;;;21.20;99.90;;;20.14;100.00;97802.81;5030311;28;1855;-70
2024/04/07 09:37:38;;;;;;;;;;;21.00;99.90;;;20.46;100.00;97807.38;5019634;28;1704;-69
2024/04/07 09:40:04;;;;;;;;;;;20.80;99.90;;;20.02;100.00;97794.03;5024199;28;2348;-71
2024/04/07 09:42:31;;;;;;;;;;;20.70;99.90;;;20.39;100.00;97801.72;5008921;28;1618;-70
2024/04/07 09:45:01;;;;;;;;;;;20.90;99.90;;;20.65;100.00;97790.94;5013362;28;1606;-69
2024/04/07 09:47:27;;;;;;;;;;;21.10;99.90;;;20.59;100.00;97794.06;5027465;28;2001;-69
2024/04/07 09:50:04;;;;;;;;;;;21.00;99.90;;;20.59;100.00;97789.59;5025965;28;1699;-70
2024/04/07 09:52:32;;;;;;;;;;;21.00;99.90;;;21.01;100.00;97795.03;5010080;28;1544;-70
2024/04/07 09:55:07;;;;;;;;;;;21.50;99.90;;;21.12;100.00;97794.16;5026156;28;3100;-70
2024/04/07 09:57:33;;;;;;;;;;;21.70;99.90;;;21.30;100.00;97782.06;5023383;28;1619;-70
2024/04/07 09:59:59;;;;;;;;;;;21.70;99.90;;;21.48;100.00;97763.88;5012369;28;1646;-70
2024/04/07 10:02:25;;;;;;;;;;;21.70;99.90;;;21.49;100.00;97770.00;5008496;28;1886;-70
2024/04/07 10:04:52;;;;;;;;;;;21.70;99.90;;;22.21;100.00;97760.34;5008288;28;1756;-70
2024/04/07 10:07:19;;;;;;;;;;;21.70;99.80;;;22.79;100.00;97749.09;5026389;28;1910;-70
2024/04/07 10:09:46;;;;;;;;;;;22.30;99.90;;;22.23;100.00;97748.69;5009762;28;1858;-70
2024/04/07 10:12:12;;;;;;;;;;;22.60;99.80;;;23.28;100.00;97728.75;5018408;28;1801;-70
2024/04/07 10:14:39;;;;;;;;;;;22.70;98.90;;;23.59;100.00;97732.88;5027481;28;1712;-70
2024/04/07 10:17:06;;;;;;;;;;;23.10;99.90;;;22.92;100.00;97718.72;5025823;28;1462;-70
2024/04/07 10:19:33;;;;;;;;;;;23.10;97.60;;;22.41;100.00;97740.09;5021437;28;1473;-69
2024/04/07 10:22:00;;;;;;;;;;;22.90;99.00;;;23.15;100.00;97729.06;5024310;28;2229;-70
2024/04/07 10:24:26;;;;;;;;;;;22.60;99.00;;;22.69;100.00;97734.03;5023991;28;1716;-70
2024/04/07 10:26:58;;;;;;;;;;;22.90;98.70;;;23.43;100.00;97724.69;5005483;28;1906;-71
2024/04/07 10:29:25;;;;;;;;;;;23.10;98.80;;;23.30;100.00;97713.56;5019875;28;1612;-70
2024/04/07 10:31:51;;;;;;;;;;;23.00;97.50;;;22.64;100.00;97736.25;5023731;28;1622;-70
2024/04/07 10:34:17;;;;;;;;;;;22.90;98.20;;;22.69;100.00;97714.66;5025017;28;1607;-71
2024/04/07 10:36:52;;;;;;;;;;;22.20;97.60;;;23.10;100.00;97705.63;5024202;28;3026;-70
2024/04/07 10:39:20;;;;;;;;;;;21.90;98.00;;;22.21;100.00;97737.41;5023034;28;2420;-70
2024/04/07 10:41:46;;;;;;;;;;;22.30;98.10;;;22.00;100.00;97733.97;5016952;28;1556;-70
2024/04/07 10:44:12;;;;;;;;;;;22.10;97.30;;;21.72;100.00;97741.63;5024102;28;1855;-70
2024/04/07 10:46:38;;;;;;;;;;;21.80;97.60;;;21.98;100.00;97749.94;5020555;28;1906;-70
2024/04/07 10:49:04;;;;;;;;;;;22.00;98.50;;;22.27;100.00;97736.88;5012758;28;1723;-69
2024/04/07 10:51:33;;;;;;;;;;;22.20;97.90;;;22.64;100.00;97730.94;5020514;28;2114;-70
2024/04/07 10:54:01;;;;;;;;;;;22.70;97.90;;;22.80;100.00;97724.28;5023033;28;1550;-70
2024/04/07 10:56:27;;;;;;;;;;;22.90;97.40;;;22.34;100.00;97731.88;5020867;28;1739;-70
2024/04/07 10:58:53;;;;;;;;;;;23.00;97.30;;;22.57;100.00;97740.41;5004402;28;1650;-70
2024/04/07 11:01:20;;;;;;;;;;;23.10;97.20;;;22.36;100.00;97729.94;5024707;28;2111;-70
2024/04/07 11:03:46;;;;;;;;;;;23.00;97.10;;;22.77;100.00;97722.75;5009087;28;1661;-71
2024/04/07 11:06:12;;;;;;;;;;;22.90;96.90;;;21.74;100.00;97733.59;5022500;28;2280;-70
2024/04/07 11:08:39;;;;;;;;;;;22.60;96.90;;;22.32;100.00;97726.72;5023366;28;1746;-70
2024/04/07 11:11:05;;;;;;;;;;;22.80;98.40;;;22.22;100.00;97719.75;5008050;28;1491;-70
2024/04/07 11:13:31;;;;;;;;;;;22.70;96.80;;;22.47;100.00;97705.19;5005935;28;1556;-71
2024/04/07 11:15:57;;;;;;;;;;;22.30;96.50;;;22.29;100.00;97697.06;5006745;28;3063;-71